createdAt,value
2023-03-24T00:01:28.144Z,6.23
2023-03-24T00:03:59.311Z,5.27
2023-03-24T00:06:27.824Z,4.53
2023-03-24T00:08:56.209Z,3.87
2023-03-24T00:11:25.488Z,4.20
2023-03-24T00:13:53.833Z,4.97
2023-03-24T00:16:22.302Z,5.67
2023-03-24T00:18:53.247Z,4.60
2023-03-24T00:21:24.740Z,5.30
2023-03-24T00:23:54.607Z,5.07
2023-03-24T00:26:25.055Z,5.83
2023-03-24T00:28:53.963Z,5.90
2023-03-24T00:31:22.294Z,6.83
2023-03-24T00:33:51.468Z,4.47
2023-03-24T00:36:21.028Z,5.70
2023-03-24T00:38:50.937Z,6.30
2023-03-24T00:41:20.085Z,4.30
2023-03-24T00:43:48.816Z,3.87
2023-03-24T00:46:27.494Z,4.40
2023-03-24T00:49:01.965Z,5.00
2023-03-24T00:51:30.930Z,5.70
2023-03-24T00:54:01.845Z,6.70
2023-03-24T00:56:31.835Z,5.20
2023-03-24T00:59:02.163Z,4.40
2023-03-24T01:01:33.084Z,4.00
2023-03-24T01:04:02.364Z,3.67
2023-03-24T01:06:30.679Z,3.77
2023-03-24T01:08:58.962Z,3.50
2023-03-24T01:11:29.405Z,4.13
2023-03-24T01:13:59.201Z,3.73
2023-03-24T01:16:30.608Z,3.73
2023-03-24T01:18:59.433Z,5.90
2023-03-24T01:21:27.852Z,4.17
2023-03-24T01:23:56.576Z,3.13
2023-03-24T01:26:24.848Z,4.23
2023-03-24T01:28:54.517Z,6.33
2023-03-24T01:31:22.810Z,3.40
2023-03-24T01:33:51.097Z,4.73
2023-03-24T01:36:19.598Z,4.13
2023-03-24T01:38:47.881Z,4.30
2023-03-24T01:41:18.240Z,3.83
2023-03-24T01:43:46.671Z,3.47
2023-03-24T01:46:17.749Z,3.37
2023-03-24T01:48:48.784Z,2.50
2023-03-24T01:51:19.744Z,2.77
2023-03-24T01:53:51.708Z,4.10
2023-03-24T01:56:20.764Z,2.63
2023-03-24T01:58:52.182Z,4.07
2023-03-24T02:01:23.176Z,3.00
2023-03-24T02:03:52.868Z,3.10
2023-03-24T02:06:21.402Z,4.23
2023-03-24T02:08:51.909Z,4.40
2023-03-24T02:11:20.662Z,3.63
2023-03-24T02:13:48.992Z,3.37
2023-03-24T02:16:32.985Z,3.17
2023-03-24T02:19:12.556Z,3.47
2023-03-24T02:22:08.639Z,3.17
2023-03-24T02:24:56.075Z,3.00
2023-03-24T02:27:31.040Z,3.60
2023-03-24T02:30:22.984Z,4.03
2023-03-24T02:33:06.553Z,3.27
2023-03-24T02:35:59.028Z,3.80
2023-03-24T02:38:54.970Z,3.60
2023-03-24T02:41:29.092Z,3.17
2023-03-24T02:44:03.352Z,4.90
2023-03-24T02:46:34.764Z,3.03
2023-03-24T02:49:12.953Z,4.17
2023-03-24T02:51:43.929Z,2.93
2023-03-24T02:54:15.886Z,2.87
2023-03-24T02:56:48.909Z,3.30
2023-03-24T02:59:20.485Z,4.07
2023-03-24T03:01:54.417Z,4.00
2023-03-24T03:04:27.538Z,3.50
2023-03-24T03:06:59.937Z,6.00
2023-03-24T03:09:29.684Z,3.23
2023-03-24T03:12:03.346Z,3.27
2023-03-24T03:14:34.584Z,3.70
2023-03-24T03:17:05.233Z,4.20
2023-03-24T03:19:34.753Z,4.37
2023-03-24T03:22:05.417Z,3.93
2023-03-24T03:24:34.216Z,3.33
2023-03-24T03:27:05.755Z,3.80
2023-03-24T03:29:37.508Z,3.87
2023-03-24T03:32:09.778Z,4.33
2023-03-24T03:34:42.644Z,4.40
2023-03-24T03:37:13.040Z,4.07
2023-03-24T03:39:43.309Z,4.33
2023-03-24T03:42:13.105Z,5.50
2023-03-24T03:44:41.363Z,4.43
2023-03-24T03:47:09.993Z,4.50
2023-03-24T03:49:38.689Z,4.70
2023-03-24T03:52:07.046Z,5.53
2023-03-24T03:54:36.139Z,4.70
2023-03-24T03:57:04.783Z,5.80
2023-03-24T03:59:35.382Z,5.87
2023-03-24T04:02:06.553Z,4.73
2023-03-24T04:04:48.659Z,5.30
2023-03-24T04:07:28.549Z,5.77
2023-03-24T04:10:00.545Z,5.13
2023-03-24T04:12:38.472Z,5.43
2023-03-24T04:15:21.965Z,5.63
2023-03-24T04:18:02.318Z,5.50
2023-03-24T04:20:33.539Z,5.07
2023-03-24T04:23:09.359Z,5.47
2023-03-24T04:25:45.108Z,5.43
2023-03-24T04:28:18.260Z,5.17
2023-03-24T04:30:47.936Z,5.00
2023-03-24T04:33:22.252Z,4.57
2023-03-24T04:35:54.418Z,5.23
2023-03-24T04:38:25.620Z,4.77
2023-03-24T04:40:55.764Z,5.27
2023-03-24T04:43:26.338Z,4.10
2023-03-24T04:45:58.851Z,4.80
2023-03-24T04:48:28.674Z,4.13
2023-03-24T04:50:58.318Z,3.70
2023-03-24T04:53:26.816Z,3.30
2023-03-24T04:56:03.273Z,3.30
2023-03-24T04:58:31.541Z,3.80
2023-03-24T05:00:59.848Z,4.40
2023-03-24T05:03:29.582Z,4.00
2023-03-24T05:05:59.110Z,2.70
2023-03-24T05:08:27.412Z,2.33
2023-03-24T05:10:55.913Z,1.90
2023-03-24T05:13:24.175Z,1.80
2023-03-24T05:15:56.185Z,3.13
2023-03-24T05:18:24.522Z,1.80
2023-03-24T05:20:54.685Z,1.53
2023-03-24T05:23:22.915Z,1.27
2023-03-24T05:25:51.916Z,2.10
2023-03-24T05:28:20.369Z,2.40
2023-03-24T05:30:48.705Z,3.20
2023-03-24T05:33:17.291Z,1.17
2023-03-24T05:35:45.771Z,2.70
2023-03-24T05:38:15.560Z,3.43
2023-03-24T05:40:43.789Z,3.03
2023-03-24T05:43:13.124Z,2.70
2023-03-24T05:45:41.361Z,1.77
2023-03-24T05:48:09.589Z,3.03
2023-03-24T05:50:37.853Z,1.73
2023-03-24T05:53:06.128Z,3.17
2023-03-24T05:55:35.898Z,3.73
2023-03-24T05:58:04.805Z,1.40
2023-03-24T06:00:33.346Z,3.67
2023-03-24T06:03:03.444Z,2.50
2023-03-24T06:05:33.462Z,3.47
2023-03-24T06:08:01.639Z,2.17
2023-03-24T06:10:29.954Z,3.57
2023-03-24T06:12:59.667Z,4.77
2023-03-24T06:15:28.688Z,2.53
2023-03-24T06:17:57.384Z,5.20
2023-03-24T06:20:25.992Z,6.10
2023-03-24T06:22:59.048Z,5.27
2023-03-24T06:25:28.793Z,5.60
2023-03-24T06:28:04.032Z,10.50
2023-03-24T06:30:33.977Z,10.37
2023-03-24T06:33:02.368Z,6.07
2023-03-24T06:35:30.679Z,8.77
2023-03-24T06:37:58.857Z,7.43
2023-03-24T06:40:27.467Z,8.03
2023-03-24T06:42:55.809Z,9.37
2023-03-24T06:45:24.057Z,9.10
2023-03-24T06:47:56.096Z,11.10
2023-03-24T06:50:26.870Z,8.83
2023-03-24T06:52:55.291Z,8.20
2023-03-24T06:55:23.532Z,9.77
2023-03-24T06:57:51.965Z,8.13
2023-03-24T07:00:20.778Z,9.07
2023-03-24T07:02:49.117Z,8.87
2023-03-24T07:05:21.870Z,8.23
2023-03-24T07:10:21.955Z,10.33
2023-03-24T07:12:50.414Z,9.20
2023-03-24T07:15:18.642Z,12.30
2023-03-24T07:17:46.888Z,8.87
2023-03-24T07:20:15.950Z,11.97
2023-03-24T07:22:45.585Z,8.70
2023-03-24T07:25:14.257Z,9.37
2023-03-24T07:27:43.055Z,10.70
2023-03-24T07:30:11.597Z,8.97
2023-03-24T07:32:40.014Z,11.10
2023-03-24T07:35:10.733Z,9.77
2023-03-24T07:37:38.998Z,6.30
2023-03-24T07:40:12.061Z,7.77
2023-03-24T07:42:41.972Z,10.43
2023-03-24T07:45:10.785Z,10.53
2023-03-24T07:47:39.446Z,11.40
2023-03-24T07:50:10.193Z,7.47
2023-03-24T07:52:38.496Z,10.67
2023-03-24T07:55:09.764Z,10.73
2023-03-24T07:57:42.099Z,12.07
2023-03-24T08:00:15.152Z,9.80
2023-03-24T08:02:43.617Z,9.17
2023-03-24T08:05:14.132Z,8.83
2023-03-24T08:07:43.524Z,10.30
2023-03-24T08:10:12.441Z,6.43
2023-03-24T08:12:42.302Z,11.00
2023-03-24T08:15:10.972Z,8.67
2023-03-24T08:17:39.178Z,11.10
2023-03-24T08:20:11.919Z,7.47
2023-03-24T08:22:40.393Z,5.17
2023-03-24T08:25:11.057Z,9.27
2023-03-24T08:27:40.110Z,7.63
2023-03-24T08:30:10.941Z,11.47
2023-03-24T08:32:39.625Z,7.60
2023-03-24T08:35:08.082Z,7.43
2023-03-24T08:37:37.342Z,9.07
2023-03-24T08:40:06.608Z,8.40
2023-03-24T08:42:34.899Z,6.47
2023-03-24T08:45:03.177Z,8.70
2023-03-24T08:47:32.847Z,7.63
2023-03-24T08:50:01.486Z,7.70
2023-03-24T08:52:29.775Z,5.43
2023-03-24T08:54:58.081Z,8.37
2023-03-24T08:57:26.620Z,11.03
2023-03-24T08:59:54.848Z,7.73
2023-03-24T09:02:23.050Z,6.53
2023-03-24T09:04:54.641Z,8.30
2023-03-24T09:07:22.992Z,5.63
2023-03-24T09:09:51.306Z,7.30
2023-03-24T09:12:19.569Z,7.07
2023-03-24T09:14:50.200Z,7.53
2023-03-24T09:17:18.431Z,7.13
2023-03-24T09:19:47.321Z,8.80
2023-03-24T09:22:16.961Z,6.77
2023-03-24T09:24:45.291Z,8.50
2023-03-24T09:27:13.567Z,9.17
2023-03-24T09:29:41.815Z,8.97
2023-03-24T09:32:10.364Z,11.93
2023-03-24T09:34:38.853Z,7.90
2023-03-24T09:37:07.222Z,10.13
2023-03-24T09:39:38.279Z,9.87
2023-03-24T09:42:06.872Z,7.40
2023-03-24T09:44:38.626Z,7.63
2023-03-24T09:47:08.031Z,7.50
2023-03-24T09:49:39.180Z,10.40
2023-03-24T09:52:08.267Z,11.60
2023-03-24T09:54:42.180Z,15.83
2023-03-24T09:57:16.947Z,10.17
2023-03-24T09:59:45.287Z,9.67
2023-03-24T10:02:14.444Z,7.43
2023-03-24T10:04:42.717Z,6.13
2023-03-24T10:07:15.122Z,6.70
2023-03-24T10:09:47.012Z,9.50
2023-03-24T10:12:19.431Z,8.10
2023-03-24T10:14:57.727Z,11.70
2023-03-24T10:17:31.461Z,10.50
2023-03-24T10:20:02.692Z,9.53
2023-03-24T10:22:32.560Z,7.13
2023-03-24T10:25:05.231Z,11.13
2023-03-24T10:27:35.291Z,8.97
2023-03-24T10:30:06.246Z,32.10
2023-03-24T10:32:35.966Z,6.57
2023-03-24T10:35:09.604Z,8.97
2023-03-24T10:37:38.677Z,6.63
2023-03-24T10:40:17.961Z,8.17
2023-03-24T10:42:48.729Z,8.53
2023-03-24T10:45:21.809Z,8.73
2023-03-24T10:47:50.655Z,7.63
2023-03-24T10:50:19.056Z,7.07
2023-03-24T10:52:50.918Z,8.63
2023-03-24T10:55:23.566Z,8.67
2023-03-24T10:57:53.615Z,6.63
2023-03-24T11:00:24.566Z,6.80
2023-03-24T11:02:58.145Z,9.27
2023-03-24T11:05:30.638Z,8.77
2023-03-24T11:08:01.204Z,6.97
2023-03-24T11:10:30.814Z,8.40
2023-03-24T11:13:05.080Z,9.60
2023-03-24T11:15:34.546Z,7.33
2023-03-24T11:18:08.930Z,6.37
2023-03-24T11:20:38.180Z,6.13
2023-03-24T11:23:09.089Z,7.60
2023-03-24T11:25:40.952Z,7.83
2023-03-24T11:28:10.961Z,5.87
2023-03-24T11:30:46.727Z,5.77
2023-03-24T11:33:19.962Z,6.93
2023-03-24T11:35:59.133Z,7.87
2023-03-24T11:38:32.542Z,5.83
2023-03-24T11:41:04.959Z,6.47
2023-03-24T11:43:33.882Z,7.10
2023-03-24T11:46:03.169Z,16.70
2023-03-24T11:48:33.579Z,8.13
2023-03-24T11:51:02.200Z,9.67
2023-03-24T11:53:32.472Z,7.40
2023-03-24T11:56:04.873Z,5.20
2023-03-24T11:58:36.546Z,8.73
2023-03-24T12:01:08.544Z,6.33
2023-03-24T12:03:57.741Z,6.90
2023-03-24T12:06:41.062Z,6.37
2023-03-24T12:09:18.151Z,6.90
2023-03-24T12:11:53.606Z,9.17
2023-03-24T12:14:25.174Z,6.83
2023-03-24T12:16:58.755Z,8.63
2023-03-24T12:19:37.379Z,4.87
2023-03-24T12:22:12.008Z,8.37
2023-03-24T12:24:48.496Z,7.97
2023-03-24T12:27:24.357Z,8.93
2023-03-24T12:29:57.970Z,4.93
2023-03-24T12:32:31.642Z,7.47
2023-03-24T12:35:13.468Z,6.40
2023-03-24T12:37:48.933Z,7.00
2023-03-24T12:40:28.535Z,10.90
2023-03-24T12:43:01.947Z,4.47
2023-03-24T12:45:36.640Z,6.40
2023-03-24T12:48:23.853Z,6.17
2023-03-24T12:50:58.556Z,4.93
2023-03-24T12:53:31.623Z,9.33
2023-03-24T12:56:01.902Z,8.97
2023-03-24T12:58:38.160Z,8.27
2023-03-24T13:01:08.897Z,6.83
2023-03-24T13:03:41.373Z,6.13
2023-03-24T13:06:17.152Z,5.93
2023-03-24T13:08:50.429Z,5.33
2023-03-24T13:11:32.258Z,6.23
2023-03-24T13:14:03.498Z,8.40
2023-03-24T13:16:33.602Z,4.67
2023-03-24T13:19:03.272Z,6.40
2023-03-24T13:21:35.142Z,5.70
2023-03-24T13:24:07.986Z,6.87
2023-03-24T13:26:40.311Z,6.30
2023-03-24T13:29:24.398Z,7.37
2023-03-24T13:31:54.579Z,6.27
2023-03-24T13:34:25.992Z,6.13
2023-03-24T13:36:57.034Z,8.73
2023-03-24T13:39:27.565Z,4.50
2023-03-24T13:41:56.638Z,7.07
2023-03-24T13:44:26.932Z,5.53
2023-03-24T13:47:04.473Z,7.23
2023-03-24T13:49:33.181Z,8.47
2023-03-24T13:52:04.080Z,9.57
2023-03-24T13:54:39.285Z,6.00
2023-03-24T13:57:08.457Z,5.97
2023-03-24T13:59:43.790Z,4.77
2023-03-24T14:02:23.939Z,3.77
2023-03-24T14:05:03.620Z,3.70
2023-03-24T14:07:33.442Z,4.50
2023-03-24T14:10:02.996Z,2.63
2023-03-24T14:12:34.423Z,3.13
2023-03-24T14:15:23.634Z,4.17
2023-03-24T14:17:55.682Z,2.43
2023-03-24T14:20:34.754Z,5.93
2023-03-24T14:23:04.405Z,1.87
2023-03-24T14:25:33.719Z,2.17
2023-03-24T14:28:26.255Z,3.23
2023-03-24T14:31:02.110Z,2.70
2023-03-24T14:33:30.563Z,6.33
2023-03-24T14:36:01.555Z,4.03
2023-03-24T14:38:29.841Z,5.83
2023-03-24T14:40:59.460Z,2.87
2023-03-24T14:43:29.167Z,4.40
2023-03-24T14:46:00.058Z,2.60
2023-03-24T14:48:36.016Z,3.90
2023-03-24T14:51:08.605Z,2.03
2023-03-24T14:53:39.424Z,3.67
2023-03-24T14:56:08.816Z,1.67
2023-03-24T14:58:39.202Z,2.60
2023-03-24T15:01:11.229Z,2.40
2023-03-24T15:03:45.974Z,4.00
2023-03-24T15:06:15.808Z,2.50
2023-03-24T15:08:46.923Z,2.00
2023-03-24T15:11:16.587Z,2.97
2023-03-24T15:13:45.378Z,3.63
2023-03-24T15:16:22.810Z,3.17
2023-03-24T15:21:25.502Z,3.10
2023-03-24T15:23:53.732Z,2.07
2023-03-24T15:26:23.365Z,3.77
2023-03-24T15:28:58.833Z,2.73
2023-03-24T15:31:30.300Z,3.33
2023-03-24T15:34:06.589Z,2.67
2023-03-24T15:36:44.855Z,1.83
2023-03-24T15:39:20.821Z,3.30
2023-03-24T15:41:52.173Z,2.87
2023-03-24T15:44:21.651Z,2.70
2023-03-24T15:46:51.355Z,2.30
2023-03-24T15:49:21.990Z,2.87
2023-03-24T15:51:51.278Z,3.33
2023-03-24T15:54:24.534Z,2.20
2023-03-24T15:57:12.875Z,4.80
2023-03-24T15:59:44.736Z,4.43
2023-03-24T16:02:18.330Z,2.87
2023-03-24T16:04:54.339Z,3.50
2023-03-24T16:07:30.847Z,5.57
2023-03-24T16:10:04.362Z,5.33
2023-03-24T16:12:33.231Z,4.20
2023-03-24T16:15:01.593Z,5.53
2023-03-24T16:17:31.351Z,2.67
2023-03-24T16:19:59.798Z,3.47
2023-03-24T16:22:28.033Z,4.17
2023-03-24T16:24:56.270Z,3.83
2023-03-24T16:27:24.542Z,5.40
2023-03-24T16:29:52.773Z,5.17
2023-03-24T16:32:21.239Z,2.50
2023-03-24T16:34:50.922Z,3.60
2023-03-24T16:37:19.343Z,3.70
2023-03-24T16:39:47.568Z,3.23
2023-03-24T16:42:15.817Z,2.73
2023-03-24T16:44:44.273Z,3.60
2023-03-24T16:47:12.692Z,2.90
2023-03-24T16:49:41.008Z,4.30
2023-03-24T16:52:13.059Z,5.73
2023-03-24T16:54:41.737Z,3.30
2023-03-24T16:57:12.298Z,4.50
2023-03-24T16:59:41.877Z,3.03
2023-03-24T17:02:11.253Z,3.17
2023-03-24T17:04:41.204Z,2.20
2023-03-24T17:07:09.859Z,2.27
2023-03-24T17:09:39.448Z,1.40
2023-03-24T17:12:07.821Z,2.63
2023-03-24T17:14:36.034Z,1.50
2023-03-24T17:17:04.587Z,2.60
2023-03-24T17:19:33.110Z,3.47
2023-03-24T17:22:02.526Z,3.17
2023-03-24T17:24:31.456Z,2.00
2023-03-24T17:27:01.377Z,1.73
2023-03-24T17:29:29.569Z,4.27
2023-03-24T17:31:57.764Z,1.90
2023-03-24T17:34:26.339Z,2.17
2023-03-24T17:36:54.591Z,2.53
2023-03-24T17:39:23.360Z,1.67
2023-03-24T17:41:51.765Z,1.50
2023-03-24T17:44:21.451Z,1.50
2023-03-24T17:46:49.816Z,1.60
2023-03-24T17:49:18.155Z,1.50
2023-03-24T17:51:46.482Z,2.87
2023-03-24T17:54:16.695Z,3.27
2023-03-24T17:56:44.969Z,1.70
2023-03-24T17:59:13.261Z,1.50
2023-03-24T18:01:42.881Z,3.70
2023-03-24T18:04:11.098Z,3.23
2023-03-24T18:06:41.909Z,4.63
2023-03-24T18:09:10.401Z,5.77
2023-03-24T18:11:39.916Z,3.83
2023-03-24T18:14:09.332Z,3.07
2023-03-24T18:16:39.206Z,6.77
2023-03-24T18:19:08.920Z,2.87
2023-03-24T18:21:37.629Z,3.03
2023-03-24T18:24:06.692Z,4.57
2023-03-24T18:26:35.148Z,5.40
2023-03-24T18:29:03.567Z,5.07
2023-03-24T18:31:32.755Z,7.27
2023-03-24T18:34:01.400Z,4.77
2023-03-24T18:36:31.222Z,8.23
2023-03-24T18:38:59.929Z,4.93
2023-03-24T18:41:28.616Z,4.30
2023-03-24T18:43:57.101Z,7.10
2023-03-24T18:46:26.145Z,6.37
2023-03-24T18:48:54.602Z,6.00
2023-03-24T18:51:38.151Z,4.27
2023-03-24T18:54:07.966Z,4.37
2023-03-24T18:56:36.445Z,6.80
2023-03-24T18:59:04.706Z,4.67
2023-03-24T19:01:33.451Z,5.27
2023-03-24T19:04:03.668Z,5.30
2023-03-24T19:06:32.006Z,10.67
2023-03-24T19:09:00.527Z,6.73
2023-03-24T19:11:30.078Z,7.00
2023-03-24T19:13:59.261Z,5.73
2023-03-24T19:16:27.590Z,4.13
2023-03-24T19:18:57.813Z,4.80
2023-03-24T19:21:27.704Z,6.73
2023-03-24T19:23:56.923Z,5.33
2023-03-24T19:26:25.861Z,7.67
2023-03-24T19:28:55.487Z,6.80
2023-03-24T19:31:23.763Z,4.93
2023-03-24T19:33:53.677Z,3.10
2023-03-24T19:36:22.061Z,4.73
2023-03-24T19:38:50.888Z,6.57
2023-03-24T19:41:19.144Z,6.73
2023-03-24T19:43:47.586Z,5.03
2023-03-24T19:46:20.808Z,5.80
2023-03-24T19:48:49.092Z,7.97
2023-03-24T19:51:18.432Z,5.90
2023-03-24T19:53:46.668Z,6.63
2023-03-24T19:56:17.365Z,6.10
2023-03-24T19:58:45.694Z,7.77
2023-03-24T20:01:14.113Z,8.00
2023-03-24T20:03:43.844Z,5.97
2023-03-24T20:06:12.156Z,5.70
2023-03-24T20:08:40.552Z,5.53
2023-03-24T20:11:09.560Z,7.73
2023-03-24T20:13:37.766Z,6.97
2023-03-24T20:16:06.314Z,4.70
2023-03-24T20:18:53.403Z,4.30
2023-03-24T20:21:30.523Z,6.33
2023-03-24T20:23:58.831Z,5.90
2023-03-24T20:26:28.650Z,6.83
2023-03-24T20:28:57.577Z,3.80
2023-03-24T20:31:26.037Z,3.33
2023-03-24T20:33:54.362Z,4.73
2023-03-24T20:36:22.737Z,3.90
2023-03-24T20:38:52.501Z,4.50
2023-03-24T20:41:21.970Z,4.27
2023-03-24T20:43:50.231Z,4.27
2023-03-24T20:46:19.392Z,5.63
2023-03-24T20:48:48.097Z,4.40
2023-03-24T20:51:16.689Z,5.60
2023-03-24T20:53:49.663Z,7.73
2023-03-24T20:56:19.986Z,5.50
2023-03-24T20:58:48.247Z,4.60
2023-03-24T21:01:20.832Z,4.53
2023-03-24T21:03:50.826Z,5.20
2023-03-24T21:06:20.061Z,4.30
2023-03-24T21:08:48.859Z,4.60
2023-03-24T21:11:17.100Z,3.70
2023-03-24T21:13:46.704Z,4.83
2023-03-24T21:16:19.575Z,5.53
2023-03-24T21:18:48.206Z,4.47
2023-03-24T21:21:17.142Z,4.07
2023-03-24T21:23:45.350Z,5.13
2023-03-24T21:26:15.169Z,5.40
2023-03-24T21:28:43.610Z,8.03
2023-03-24T21:31:15.427Z,3.87
2023-03-24T21:33:44.567Z,4.80
2023-03-24T21:36:13.315Z,4.73
2023-03-24T21:38:41.668Z,6.57
2023-03-24T21:41:10.282Z,5.17
2023-03-24T21:43:40.293Z,5.47
2023-03-24T21:46:14.877Z,4.40
2023-03-24T21:48:50.027Z,3.83
2023-03-24T21:51:19.747Z,3.73
2023-03-24T21:53:48.678Z,2.80
2023-03-24T21:56:16.958Z,4.67
2023-03-24T21:58:46.375Z,4.53
2023-03-24T22:01:14.865Z,3.03
2023-03-24T22:03:43.208Z,4.70
2023-03-24T22:06:12.974Z,3.80
2023-03-24T22:08:43.465Z,3.43
2023-03-24T22:11:15.234Z,2.80
2023-03-24T22:13:43.410Z,4.13
2023-03-24T22:16:11.612Z,5.27
2023-03-24T22:18:39.895Z,4.00
2023-03-24T22:21:09.301Z,3.67
2023-03-24T22:23:39.842Z,3.20
2023-03-24T22:26:09.625Z,2.93
2023-03-24T22:28:38.132Z,3.37
2023-03-24T22:31:07.992Z,3.73
2023-03-24T22:33:36.401Z,4.63
2023-03-24T22:36:04.974Z,3.50
2023-03-24T22:38:34.284Z,3.20
2023-03-24T22:41:05.817Z,3.90
2023-03-24T22:43:34.991Z,2.10
2023-03-24T22:46:03.644Z,3.67
2023-03-24T22:48:32.071Z,3.17
2023-03-24T22:51:00.373Z,1.90
2023-03-24T22:53:28.559Z,3.07
2023-03-24T22:55:57.098Z,1.70
2023-03-24T22:58:26.651Z,2.23
2023-03-24T23:00:56.518Z,2.37
2023-03-24T23:03:24.847Z,3.33
2023-03-24T23:05:53.417Z,2.93
2023-03-24T23:08:21.696Z,2.73
2023-03-24T23:10:49.871Z,2.63
2023-03-24T23:13:18.047Z,1.17
2023-03-24T23:15:49.630Z,2.20
2023-03-24T23:18:18.185Z,2.13
2023-03-24T23:20:46.541Z,3.97
2023-03-24T23:23:15.226Z,3.83
2023-03-24T23:25:44.161Z,2.83
2023-03-24T23:28:12.655Z,2.83
2023-03-24T23:30:41.224Z,3.63
2023-03-24T23:33:14.961Z,2.17
2023-03-24T23:35:43.426Z,4.60
2023-03-24T23:38:11.693Z,3.50
2023-03-24T23:40:40.333Z,3.00
2023-03-24T23:43:08.525Z,2.23
2023-03-24T23:45:36.797Z,2.23
2023-03-24T23:48:05.309Z,3.50
2023-03-24T23:50:34.936Z,3.13
2023-03-24T23:53:03.161Z,3.80
2023-03-24T23:55:31.811Z,3.63
2023-03-24T23:58:00.028Z,1.90
